Clarksburg, West Virginia
Current Conditions -  °F | °C
As of 2:53 PM on Monday 22 Dec 2014 (Local Time) from KCKB Reporting Station
Overcast Overcast  
Wind Chill: 45°   Ceiling: 5000
Heat Index: 49°   Visibility: 10mi
Dew Point: 38°   Wind: 8mph
Humidity: 66%   Direction: 100°E
Pressure: 29.96"   Gusts: NA
Location:  39.28°N, 80.34°W
Report Text: KCKB 221953Z 10007KT 10SM OVC050 09/03 A2996 RMK AO2 RAB14E49 SLP150 P0000 T00940033
Loading
Personal Weather Stations






























Interactive Weather Map New forecast layout! Learn more

10-Day Weather Forecast

Advertisements
Track Severe Weather on mobile